sensor_id;sensor_type;location;lat;lon;timestamp;pressure;altitude;pressure_sealevel;temperature;humidity
10480;BME280;12789;42.610;23.040;2022-07-29T00:01:19;93811.22;;;18.06;100.00
10480;BME280;12789;42.610;23.040;2022-07-29T00:03:46;93810.78;;;18.02;100.00
10480;BME280;12789;42.610;23.040;2022-07-29T00:06:14;93817.34;;;18.13;100.00
10480;BME280;12789;42.610;23.040;2022-07-29T00:08:41;93824.84;;;18.16;100.00
10480;BME280;12789;42.610;23.040;2022-07-29T00:11:09;93828.28;;;18.16;100.00
10480;BME280;12789;42.610;23.040;2022-07-29T00:13:35;93818.75;;;17.95;100.00
10480;BME280;12789;42.610;23.040;2022-07-29T00:16:03;93816.25;;;18.22;100.00
10480;BME280;12789;42.610;23.040;2022-07-29T00:18:30;93821.66;;;18.35;100.00
10480;BME280;12789;42.610;23.040;2022-07-29T00:20:57;93819.34;;;18.46;100.00
10480;BME280;12789;42.610;23.040;2022-07-29T00:23:26;93813.34;;;18.52;100.00
10480;BME280;12789;42.610;23.040;2022-07-29T00:25:53;93807.72;;;18.55;100.00
10480;BME280;12789;42.610;23.040;2022-07-29T00:28:20;93813.72;;;18.49;100.00
10480;BME280;12789;42.610;23.040;2022-07-29T00:30:47;93818.81;;;18.51;100.00
10480;BME280;12789;42.610;23.040;2022-07-29T00:33:14;93812.72;;;18.50;100.00
10480;BME280;12789;42.610;23.040;2022-07-29T00:35:41;93810.31;;;18.49;100.00
10480;BME280;12789;42.610;23.040;2022-07-29T00:38:10;93806.28;;;18.32;100.00
10480;BME280;12789;42.610;23.040;2022-07-29T00:40:38;93807.53;;;18.36;100.00
10480;BME280;12789;42.610;23.040;2022-07-29T00:43:05;93803.78;;;18.45;100.00
10480;BME280;12789;42.610;23.040;2022-07-29T00:45:33;93807.78;;;18.41;100.00
10480;BME280;12789;42.610;23.040;2022-07-29T00:48:00;93796.91;;;18.44;100.00
10480;BME280;12789;42.610;23.040;2022-07-29T00:50:28;93787.19;;;18.23;100.00
10480;BME280;12789;42.610;23.040;2022-07-29T00:52:55;93781.16;;;18.44;100.00
10480;BME280;12789;42.610;23.040;2022-07-29T00:55:23;93777.25;;;18.33;100.00
10480;BME280;12789;42.610;23.040;2022-07-29T00:57:52;93774.88;;;18.24;100.00
10480;BME280;12789;42.610;23.040;2022-07-29T01:00:21;93767.66;;;18.26;100.00
10480;BME280;12789;42.610;23.040;2022-07-29T01:02:48;93767.69;;;18.11;100.00
10480;BME280;12789;42.610;23.040;2022-07-29T01:05:20;93773.69;;;18.05;100.00
10480;BME280;12789;42.610;23.040;2022-07-29T01:07:49;93782.72;;;18.03;100.00
10480;BME280;12789;42.610;23.040;2022-07-29T01:10:18;93779.00;;;18.12;100.00
10480;BME280;12789;42.610;23.040;2022-07-29T01:12:48;93778.00;;;18.13;100.00
10480;BME280;12789;42.610;23.040;2022-07-29T01:15:17;93771.91;;;18.27;100.00
10480;BME280;12789;42.610;23.040;2022-07-29T01:17:51;93773.63;;;18.20;100.00
10480;BME280;12789;42.610;23.040;2022-07-29T01:20:26;93763.25;;;18.12;100.00
10480;BME280;12789;42.610;23.040;2022-07-29T01:26:17;93768.06;;;18.08;100.00
10480;BME280;12789;42.610;23.040;2022-07-29T01:29:02;93768.38;;;18.34;100.00
10480;BME280;12789;42.610;23.040;2022-07-29T01:31:39;93764.38;;;18.24;100.00
10480;BME280;12789;42.610;23.040;2022-07-29T01:34:31;93765.25;;;18.10;100.00
10480;BME280;12789;42.610;23.040;2022-07-29T01:37:48;93769.16;;;18.35;100.00
10480;BME280;12789;42.610;23.040;2022-07-29T01:40:25;93767.66;;;18.26;100.00
10480;BME280;12789;42.610;23.040;2022-07-29T01:43:06;93756.19;;;18.27;100.00
10480;BME280;12789;42.610;23.040;2022-07-29T01:45:53;93766.88;;;18.11;100.00
10480;BME280;12789;42.610;23.040;2022-07-29T01:48:37;93756.38;;;18.11;100.00
10480;BME280;12789;42.610;23.040;2022-07-29T01:51:14;93759.13;;;18.24;100.00
10480;BME280;12789;42.610;23.040;2022-07-29T01:56:33;93775.00;;;18.16;100.00
10480;BME280;12789;42.610;23.040;2022-07-29T01:59:19;93749.63;;;18.02;100.00
10480;BME280;12789;42.610;23.040;2022-07-29T02:02:26;93766.66;;;18.27;100.00
10480;BME280;12789;42.610;23.040;2022-07-29T02:05:28;93754.22;;;18.00;100.00
10480;BME280;12789;42.610;23.040;2022-07-29T02:08:43;93757.44;;;18.16;100.00
10480;BME280;12789;42.610;23.040;2022-07-29T02:11:10;93761.38;;;18.06;100.00
10480;BME280;12789;42.610;23.040;2022-07-29T02:13:38;93743.03;;;18.06;100.00
10480;BME280;12789;42.610;23.040;2022-07-29T02:16:09;93749.78;;;18.15;100.00
10480;BME280;12789;42.610;23.040;2022-07-29T02:18:41;93747.81;;;18.02;100.00
10480;BME280;12789;42.610;23.040;2022-07-29T02:21:09;93752.22;;;18.02;100.00
10480;BME280;12789;42.610;23.040;2022-07-29T02:23:38;93755.44;;;17.98;100.00
10480;BME280;12789;42.610;23.040;2022-07-29T02:26:09;93741.69;;;17.96;100.00
10480;BME280;12789;42.610;23.040;2022-07-29T02:28:36;93739.75;;;18.04;100.00
10480;BME280;12789;42.610;23.040;2022-07-29T02:31:07;93749.81;;;18.01;100.00
10480;BME280;12789;42.610;23.040;2022-07-29T02:33:39;93727.13;;;17.93;100.00
10480;BME280;12789;42.610;23.040;2022-07-29T02:36:08;93743.94;;;17.99;100.00
10480;BME280;12789;42.610;23.040;2022-07-29T02:38:36;93734.19;;;17.93;100.00
10480;BME280;12789;42.610;23.040;2022-07-29T02:41:27;93718.88;;;17.75;100.00
10480;BME280;12789;42.610;23.040;2022-07-29T02:43:56;93739.09;;;17.81;100.00
10480;BME280;12789;42.610;23.040;2022-07-29T02:46:29;93725.00;;;17.82;100.00
10480;BME280;12789;42.610;23.040;2022-07-29T02:49:06;93730.25;;;17.82;100.00
10480;BME280;12789;42.610;23.040;2022-07-29T02:51:41;93728.09;;;17.71;100.00
10480;BME280;12789;42.610;23.040;2022-07-29T02:54:13;93737.69;;;17.64;100.00
10480;BME280;12789;42.610;23.040;2022-07-29T02:56:51;93713.91;;;17.66;100.00
10480;BME280;12789;42.610;23.040;2022-07-29T02:59:25;93732.41;;;17.79;100.00
10480;BME280;12789;42.610;23.040;2022-07-29T03:02:04;93741.38;;;17.70;100.00
10480;BME280;12789;42.610;23.040;2022-07-29T03:04:35;93730.81;;;17.63;100.00
10480;BME280;12789;42.610;23.040;2022-07-29T03:07:05;93740.22;;;17.72;100.00
10480;BME280;12789;42.610;23.040;2022-07-29T03:09:36;93746.47;;;17.71;100.00
10480;BME280;12789;42.610;23.040;2022-07-29T03:12:11;93733.00;;;17.60;100.00
10480;BME280;12789;42.610;23.040;2022-07-29T03:14:39;93740.03;;;17.59;100.00
10480;BME280;12789;42.610;23.040;2022-07-29T03:17:09;93749.72;;;17.59;100.00
10480;BME280;12789;42.610;23.040;2022-07-29T03:19:39;93749.72;;;17.59;100.00
10480;BME280;12789;42.610;23.040;2022-07-29T03:22:09;93741.88;;;17.44;100.00
10480;BME280;12789;42.610;23.040;2022-07-29T03:24:37;93747.84;;;17.38;100.00
10480;BME280;12789;42.610;23.040;2022-07-29T03:27:04;93754.16;;;17.44;100.00
10480;BME280;12789;42.610;23.040;2022-07-29T03:29:32;93758.34;;;17.38;100.00
10480;BME280;12789;42.610;23.040;2022-07-29T03:32:02;93752.47;;;17.36;100.00
10480;BME280;12789;42.610;23.040;2022-07-29T03:34:33;93755.41;;;17.19;100.00
10480;BME280;12789;42.610;23.040;2022-07-29T03:37:02;93752.88;;;16.96;100.00
10480;BME280;12789;42.610;23.040;2022-07-29T03:39:33;93748.34;;;17.19;100.00
10480;BME280;12789;42.610;23.040;2022-07-29T03:42:04;93746.38;;;17.21;100.00
10480;BME280;12789;42.610;23.040;2022-07-29T03:44:34;93757.41;;;17.31;100.00
10480;BME280;12789;42.610;23.040;2022-07-29T03:47:08;93763.34;;;17.25;100.00
10480;BME280;12789;42.610;23.040;2022-07-29T03:49:37;93760.91;;;17.24;100.00
10480;BME280;12789;42.610;23.040;2022-07-29T03:52:23;93757.19;;;17.18;100.00
10480;BME280;12789;42.610;23.040;2022-07-29T03:55:01;93744.75;;;16.91;100.00
10480;BME280;12789;42.610;23.040;2022-07-29T03:57:30;93760.00;;;17.02;100.00
10480;BME280;12789;42.610;23.040;2022-07-29T03:59:58;93755.31;;;17.12;100.00
10480;BME280;12789;42.610;23.040;2022-07-29T04:02:30;93752.78;;;17.04;100.00
10480;BME280;12789;42.610;23.040;2022-07-29T04:05:02;93761.81;;;17.31;100.00
10480;BME280;12789;42.610;23.040;2022-07-29T04:07:34;93775.63;;;17.10;100.00
10480;BME280;12789;42.610;23.040;2022-07-29T04:10:11;93781.66;;;17.33;100.00
10480;BME280;12789;42.610;23.040;2022-07-29T04:12:43;93754.47;;;17.26;100.00
10480;BME280;12789;42.610;23.040;2022-07-29T04:15:11;93766.25;;;17.16;100.00
10480;BME280;12789;42.610;23.040;2022-07-29T04:17:38;93770.06;;;17.42;100.00
10480;BME280;12789;42.610;23.040;2022-07-29T04:20:05;93777.56;;;17.45;100.00
10480;BME280;12789;42.610;23.040;2022-07-29T04:22:34;93767.25;;;17.44;100.00
10480;BME280;12789;42.610;23.040;2022-07-29T04:25:01;93769.44;;;17.55;100.00
10480;BME280;12789;42.610;23.040;2022-07-29T04:27:28;93766.72;;;17.48;100.00
10480;BME280;12789;42.610;23.040;2022-07-29T04:29:55;93777.47;;;17.53;100.00
10480;BME280;12789;42.610;23.040;2022-07-29T04:32:23;93765.38;;;17.38;100.00
10480;BME280;12789;42.610;23.040;2022-07-29T04:34:50;93777.47;;;17.53;100.00
10480;BME280;12789;42.610;23.040;2022-07-29T04:37:18;93782.81;;;17.60;100.00
10480;BME280;12789;42.610;23.040;2022-07-29T04:39:48;93778.66;;;17.51;100.00
10480;BME280;12789;42.610;23.040;2022-07-29T04:42:15;93779.81;;;17.63;100.00
10480;BME280;12789;42.610;23.040;2022-07-29T04:44:43;93780.81;;;17.47;100.00
10480;BME280;12789;42.610;23.040;2022-07-29T04:47:10;93786.47;;;17.65;100.00
10480;BME280;12789;42.610;23.040;2022-07-29T04:49:38;93785.47;;;17.81;100.00
10480;BME280;12789;42.610;23.040;2022-07-29T04:52:05;93780.78;;;17.91;100.00
10480;BME280;12789;42.610;23.040;2022-07-29T04:54:33;93788.56;;;17.84;100.00
10480;BME280;12789;42.610;23.040;2022-07-29T04:57:03;93782.31;;;17.85;100.00
10480;BME280;12789;42.610;23.040;2022-07-29T04:59:37;93783.72;;;18.02;100.00
10480;BME280;12789;42.610;23.040;2022-07-29T05:02:14;93777.69;;;17.87;100.00
10480;BME280;12789;42.610;23.040;2022-07-29T05:04:41;93780.22;;;17.95;100.00
10480;BME280;12789;42.610;23.040;2022-07-29T05:07:09;93786.53;;;18.01;100.00
10480;BME280;12789;42.610;23.040;2022-07-29T05:10:15;93784.63;;;18.09;100.00
10480;BME280;12789;42.610;23.040;2022-07-29T05:12:44;93790.78;;;18.02;100.00
10480;BME280;12789;42.610;23.040;2022-07-29T05:15:15;93787.00;;;18.25;100.00
10480;BME280;12789;42.610;23.040;2022-07-29T05:17:43;93778.16;;;17.91;100.00
10480;BME280;12789;42.610;23.040;2022-07-29T05:20:10;93785.78;;;18.06;100.00
10480;BME280;12789;42.610;23.040;2022-07-29T05:22:37;93788.03;;;18.09;100.00
10480;BME280;12789;42.610;23.040;2022-07-29T05:25:05;93796.53;;;18.26;100.00
10480;BME280;12789;42.610;23.040;2022-07-29T05:27:33;93769.91;;;18.29;100.00
10480;BME280;12789;42.610;23.040;2022-07-29T05:30:02;93804.94;;;18.57;100.00
10480;BME280;12789;42.610;23.040;2022-07-29T05:32:29;93781.34;;;18.63;100.00
10480;BME280;12789;42.610;23.040;2022-07-29T05:34:57;93798.16;;;18.90;100.00
10480;BME280;12789;42.610;23.040;2022-07-29T05:37:27;93796.81;;;18.52;100.00
10480;BME280;12789;42.610;23.040;2022-07-29T05:39:54;93784.41;;;18.67;100.00
10480;BME280;12789;42.610;23.040;2022-07-29T05:42:25;93797.78;;;18.72;100.00
10480;BME280;12789;42.610;23.040;2022-07-29T05:44:53;93783.53;;;18.81;100.00
10480;BME280;12789;42.610;23.040;2022-07-29T05:47:23;93799.16;;;18.89;100.00
10480;BME280;12789;42.610;23.040;2022-07-29T05:49:51;93806.00;;;19.11;100.00
10480;BME280;12789;42.610;23.040;2022-07-29T05:52:18;93797.56;;;18.94;100.00
10480;BME280;12789;42.610;23.040;2022-07-29T05:54:45;93798.13;;;19.11;100.00
10480;BME280;12789;42.610;23.040;2022-07-29T05:57:15;93805.50;;;19.22;100.00
10480;BME280;12789;42.610;23.040;2022-07-29T05:59:42;93790.59;;;19.29;100.00
10480;BME280;12789;42.610;23.040;2022-07-29T06:02:10;93802.78;;;19.70;100.00
10480;BME280;12789;42.610;23.040;2022-07-29T06:04:40;93806.91;;;19.85;100.00
10480;BME280;12789;42.610;23.040;2022-07-29T06:07:07;93802.09;;;19.95;100.00
10480;BME280;12789;42.610;23.040;2022-07-29T06:09:35;93812.91;;;20.07;100.00
10480;BME280;12789;42.610;23.040;2022-07-29T06:12:03;93791.88;;;20.13;100.00
10480;BME280;12789;42.610;23.040;2022-07-29T06:14:31;93789.69;;;20.23;100.00
10480;BME280;12789;42.610;23.040;2022-07-29T06:16:58;93809.19;;;20.48;100.00
10480;BME280;12789;42.610;23.040;2022-07-29T06:19:25;93808.81;;;20.51;100.00
10480;BME280;12789;42.610;23.040;2022-07-29T06:21:53;93801.72;;;20.45;100.00
10480;BME280;12789;42.610;23.040;2022-07-29T06:24:20;93804.78;;;20.62;100.00
10480;BME280;12789;42.610;23.040;2022-07-29T06:26:54;93789.38;;;20.65;100.00
10480;BME280;12789;42.610;23.040;2022-07-29T06:29:25;93785.94;;;20.71;100.00
10480;BME280;12789;42.610;23.040;2022-07-29T06:32:00;93804.22;;;20.99;100.00
10480;BME280;12789;42.610;23.040;2022-07-29T06:34:34;93783.16;;;20.86;100.00
10480;BME280;12789;42.610;23.040;2022-07-29T06:37:10;93797.94;;;21.00;100.00
10480;BME280;12789;42.610;23.040;2022-07-29T06:39:43;93798.34;;;21.16;100.00
10480;BME280;12789;42.610;23.040;2022-07-29T06:42:11;93792.50;;;21.08;100.00
10480;BME280;12789;42.610;23.040;2022-07-29T06:44:42;93819.63;;;21.47;100.00
10480;BME280;12789;42.610;23.040;2022-07-29T06:47:16;93798.13;;;21.50;100.00
10480;BME280;12789;42.610;23.040;2022-07-29T06:49:49;93800.78;;;21.63;100.00
10480;BME280;12789;42.610;23.040;2022-07-29T06:52:20;93798.53;;;21.73;100.00
10480;BME280;12789;42.610;23.040;2022-07-29T06:54:51;93797.56;;;22.18;100.00
10480;BME280;12789;42.610;23.040;2022-07-29T06:57:21;93806.25;;;22.69;100.00
10480;BME280;12789;42.610;23.040;2022-07-29T06:59:54;93798.91;;;23.01;100.00
10480;BME280;12789;42.610;23.040;2022-07-29T07:02:24;93808.75;;;22.94;100.00
10480;BME280;12789;42.610;23.040;2022-07-29T07:04:57;93810.63;;;23.43;100.00
10480;BME280;12789;42.610;23.040;2022-07-29T07:07:27;93818.06;;;23.28;100.00
10480;BME280;12789;42.610;23.040;2022-07-29T07:10:00;93814.34;;;22.73;100.00
10480;BME280;12789;42.610;23.040;2022-07-29T07:12:29;93806.19;;;22.81;100.00
10480;BME280;12789;42.610;23.040;2022-07-29T07:15:00;93809.22;;;23.09;100.00
10480;BME280;12789;42.610;23.040;2022-07-29T07:17:31;93809.00;;;23.66;100.00
10480;BME280;12789;42.610;23.040;2022-07-29T07:20:03;93790.47;;;23.66;100.00
10480;BME280;12789;42.610;23.040;2022-07-29T07:22:35;93793.69;;;23.68;100.00
10480;BME280;12789;42.610;23.040;2022-07-29T07:25:04;93796.94;;;23.70;100.00
10480;BME280;12789;42.610;23.040;2022-07-29T07:27:39;93794.44;;;24.47;100.00
10480;BME280;12789;42.610;23.040;2022-07-29T07:30:07;93794.44;;;24.65;100.00
10480;BME280;12789;42.610;23.040;2022-07-29T07:32:39;93805.13;;;24.58;100.00
10480;BME280;12789;42.610;23.040;2022-07-29T07:35:09;93803.66;;;24.62;100.00
10480;BME280;12789;42.610;23.040;2022-07-29T07:37:39;93802.22;;;24.78;100.00
10480;BME280;12789;42.610;23.040;2022-07-29T07:40:20;93802.66;;;25.57;100.00
10480;BME280;12789;42.610;23.040;2022-07-29T07:42:58;93782.34;;;26.36;100.00
10480;BME280;12789;42.610;23.040;2022-07-29T07:45:36;93786.50;;;26.55;100.00
10480;BME280;12789;42.610;23.040;2022-07-29T07:48:13;93788.63;;;26.69;100.00
10480;BME280;12789;42.610;23.040;2022-07-29T07:50:54;93795.16;;;27.06;100.00
10480;BME280;12789;42.610;23.040;2022-07-29T07:53:37;93780.66;;;26.18;100.00
10480;BME280;12789;42.610;23.040;2022-07-29T07:56:14;93777.78;;;26.20;100.00
10480;BME280;12789;42.610;23.040;2022-07-29T07:58:46;93773.91;;;27.23;100.00
10480;BME280;12789;42.610;23.040;2022-07-29T08:01:39;93781.63;;;25.67;100.00
10480;BME280;12789;42.610;23.040;2022-07-29T08:04:15;93805.41;;;25.62;100.00
10480;BME280;12789;42.610;23.040;2022-07-29T08:06:53;93793.41;;;26.05;100.00
10480;BME280;12789;42.610;23.040;2022-07-29T08:09:35;93788.97;;;26.33;100.00
10480;BME280;12789;42.610;23.040;2022-07-29T08:12:06;93781.97;;;26.55;100.00
10480;BME280;12789;42.610;23.040;2022-07-29T08:14:36;93779.19;;;27.34;100.00
10480;BME280;12789;42.610;23.040;2022-07-29T08:17:06;93773.94;;;27.39;98.48
10480;BME280;12789;42.610;23.040;2022-07-29T08:19:42;93775.84;;;26.83;99.45
10480;BME280;12789;42.610;23.040;2022-07-29T08:22:10;93778.28;;;27.45;96.69
10480;BME280;12789;42.610;23.040;2022-07-29T08:24:46;93788.13;;;27.61;99.87
10480;BME280;12789;42.610;23.040;2022-07-29T08:27:22;93779.09;;;26.57;100.00
10480;BME280;12789;42.610;23.040;2022-07-29T08:30:03;93779.94;;;26.34;100.00
10480;BME280;12789;42.610;23.040;2022-07-29T08:32:31;93773.25;;;27.98;96.53
10480;BME280;12789;42.610;23.040;2022-07-29T08:35:00;93761.97;;;27.91;100.00
10480;BME280;12789;42.610;23.040;2022-07-29T08:37:33;93765.41;;;28.72;93.45
10480;BME280;12789;42.610;23.040;2022-07-29T08:40:08;93756.78;;;28.22;88.88
10480;BME280;12789;42.610;23.040;2022-07-29T08:42:47;93756.75;;;30.12;92.80
10480;BME280;12789;42.610;23.040;2022-07-29T08:45:18;93762.88;;;29.35;86.79
10480;BME280;12789;42.610;23.040;2022-07-29T08:47:50;93754.50;;;31.12;86.58
10480;BME280;12789;42.610;23.040;2022-07-29T08:50:21;93743.28;;;31.85;88.31
10480;BME280;12789;42.610;23.040;2022-07-29T08:52:56;93745.78;;;30.04;78.68
10480;BME280;12789;42.610;23.040;2022-07-29T08:55:31;93738.03;;;30.69;74.40
10480;BME280;12789;42.610;23.040;2022-07-29T08:58:05;93751.81;;;29.89;75.79
10480;BME280;12789;42.610;23.040;2022-07-29T09:00:41;93736.47;;;30.16;71.18
10480;BME280;12789;42.610;23.040;2022-07-29T09:03:20;93731.88;;;30.63;70.47
10480;BME280;12789;42.610;23.040;2022-07-29T09:05:52;93738.44;;;31.37;69.60
10480;BME280;12789;42.610;23.040;2022-07-29T09:08:33;93731.91;;;30.73;64.83
10480;BME280;12789;42.610;23.040;2022-07-29T09:11:44;93725.66;;;29.60;68.22
10480;BME280;12789;42.610;23.040;2022-07-29T09:14:16;93723.56;;;30.65;66.30
10480;BME280;12789;42.610;23.040;2022-07-29T09:16:53;93729.84;;;31.05;67.36
10480;BME280;12789;42.610;23.040;2022-07-29T09:19:29;93725.59;;;33.15;66.98
10480;BME280;12789;42.610;23.040;2022-07-29T09:22:06;93715.03;;;32.27;65.65
10480;BME280;12789;42.610;23.040;2022-07-29T09:24:43;93718.56;;;31.98;63.32
10480;BME280;12789;42.610;23.040;2022-07-29T09:27:23;93738.16;;;30.37;66.85
10480;BME280;12789;42.610;23.040;2022-07-29T09:30:02;93729.00;;;30.94;67.66
10480;BME280;12789;42.610;23.040;2022-07-29T09:32:54;93727.88;;;30.80;65.95
10480;BME280;12789;42.610;23.040;2022-07-29T09:35:23;93720.13;;;30.69;63.25
10480;BME280;12789;42.610;23.040;2022-07-29T09:38:26;93715.94;;;31.43;62.87
10480;BME280;12789;42.610;23.040;2022-07-29T09:42:28;93719.72;;;31.42;64.10
10480;BME280;12789;42.610;23.040;2022-07-29T09:45:31;93721.81;;;31.80;62.51
10480;BME280;12789;42.610;23.040;2022-07-29T09:48:23;93704.09;;;31.99;61.20
10480;BME280;12789;42.610;23.040;2022-07-29T09:51:35;93697.63;;;32.05;62.41
10480;BME280;12789;42.610;23.040;2022-07-29T09:55:02;93690.75;;;31.34;60.33
10480;BME280;12789;42.610;23.040;2022-07-29T09:57:31;93700.66;;;31.43;64.23
10480;BME280;12789;42.610;23.040;2022-07-29T10:00:43;93693.31;;;32.19;60.79
10480;BME280;12789;42.610;23.040;2022-07-29T10:03:13;93687.59;;;32.98;61.88
10480;BME280;12789;42.610;23.040;2022-07-29T10:05:42;93687.03;;;32.96;60.41
10480;BME280;12789;42.610;23.040;2022-07-29T10:08:10;93684.00;;;33.46;56.44
10480;BME280;12789;42.610;23.040;2022-07-29T10:10:38;93670.59;;;33.98;55.35
10480;BME280;12789;42.610;23.040;2022-07-29T10:13:16;93679.94;;;33.82;56.80
10480;BME280;12789;42.610;23.040;2022-07-29T10:17:17;93673.91;;;32.95;57.36
10480;BME280;12789;42.610;23.040;2022-07-29T10:19:58;93660.84;;;34.49;55.96
10480;BME280;12789;42.610;23.040;2022-07-29T10:22:25;93663.50;;;34.96;54.48
10480;BME280;12789;42.610;23.040;2022-07-29T10:25:09;93652.63;;;33.03;56.66
10480;BME280;12789;42.610;23.040;2022-07-29T10:27:37;93652.09;;;34.15;54.83
10480;BME280;12789;42.610;23.040;2022-07-29T10:30:06;93646.34;;;35.24;54.95
10480;BME280;12789;42.610;23.040;2022-07-29T10:35:31;93654.22;;;34.65;56.16
10480;BME280;12789;42.610;23.040;2022-07-29T10:41:11;93641.31;;;34.62;52.79
10480;BME280;12789;42.610;23.040;2022-07-29T10:43:58;93632.53;;;35.76;53.51
10480;BME280;12789;42.610;23.040;2022-07-29T10:46:47;93627.69;;;37.81;52.39
10480;BME280;12789;42.610;23.040;2022-07-29T10:54:00;93617.94;;;34.15;51.67
10480;BME280;12789;42.610;23.040;2022-07-29T10:57:13;93624.75;;;34.50;53.73
10480;BME280;12789;42.610;23.040;2022-07-29T10:59:48;93616.97;;;33.83;54.60
10480;BME280;12789;42.610;23.040;2022-07-29T11:02:41;93615.47;;;34.61;50.75
10480;BME280;12789;42.610;23.040;2022-07-29T11:06:08;93590.28;;;35.39;50.00
10480;BME280;12789;42.610;23.040;2022-07-29T11:09:26;93611.22;;;34.13;51.22
10480;BME280;12789;42.610;23.040;2022-07-29T11:19:32;93605.78;;;33.43;51.01
10480;BME280;12789;42.610;23.040;2022-07-29T11:22:02;93612.00;;;33.43;54.63
10480;BME280;12789;42.610;23.040;2022-07-29T11:25:15;93594.34;;;35.69;49.75
10480;BME280;12789;42.610;23.040;2022-07-29T11:27:50;93589.16;;;35.85;47.17
10480;BME280;12789;42.610;23.040;2022-07-29T11:30:21;93595.41;;;34.72;50.00
10480;BME280;12789;42.610;23.040;2022-07-29T11:33:26;93582.09;;;36.79;47.38
10480;BME280;12789;42.610;23.040;2022-07-29T11:36:22;93589.84;;;34.82;49.21
10480;BME280;12789;42.610;23.040;2022-07-29T11:38:49;93575.94;;;34.75;48.00
10480;BME280;12789;42.610;23.040;2022-07-29T11:41:21;93580.84;;;34.73;47.39
10480;BME280;12789;42.610;23.040;2022-07-29T11:43:50;93578.81;;;36.68;48.12
10480;BME280;12789;42.610;23.040;2022-07-29T11:49:00;93566.53;;;38.92;44.16
10480;BME280;12789;42.610;23.040;2022-07-29T11:51:30;93560.94;;;38.07;43.28
10480;BME280;12789;42.610;23.040;2022-07-29T11:53:58;93565.47;;;35.24;46.28
10480;BME280;12789;42.610;23.040;2022-07-29T11:56:30;93569.22;;;36.84;46.83
10480;BME280;12789;42.610;23.040;2022-07-29T11:59:03;93564.59;;;35.74;47.52
10480;BME280;12789;42.610;23.040;2022-07-29T12:01:32;93566.81;;;36.96;46.38
10480;BME280;12789;42.610;23.040;2022-07-29T12:04:22;93563.38;;;36.20;43.88
10480;BME280;12789;42.610;23.040;2022-07-29T12:06:54;93562.69;;;36.14;43.74
10480;BME280;12789;42.610;23.040;2022-07-29T12:09:22;93565.16;;;36.38;44.89
10480;BME280;12789;42.610;23.040;2022-07-29T12:11:56;93560.25;;;35.14;43.96
10480;BME280;12789;42.610;23.040;2022-07-29T12:14:25;93572.22;;;36.96;43.68
10480;BME280;12789;42.610;23.040;2022-07-29T12:16:52;93556.66;;;38.15;41.33
10480;BME280;12789;42.610;23.040;2022-07-29T12:19:28;93562.28;;;36.70;41.75
10480;BME280;12789;42.610;23.040;2022-07-29T12:21:56;93551.25;;;37.84;40.92
10480;BME280;12789;42.610;23.040;2022-07-29T12:24:25;93546.28;;;37.17;41.20
10480;BME280;12789;42.610;23.040;2022-07-29T12:26:54;93561.47;;;37.27;42.43
10480;BME280;12789;42.610;23.040;2022-07-29T12:29:22;93544.25;;;38.14;40.67
10480;BME280;12789;42.610;23.040;2022-07-29T12:31:53;93541.28;;;37.54;39.76
10480;BME280;12789;42.610;23.040;2022-07-29T12:34:22;93545.34;;;38.13;42.08
10480;BME280;12789;42.610;23.040;2022-07-29T12:36:50;93540.34;;;35.42;42.65
10480;BME280;12789;42.610;23.040;2022-07-29T12:39:19;93539.38;;;35.78;42.54
10480;BME280;12789;42.610;23.040;2022-07-29T12:41:46;93541.75;;;36.33;40.69
10480;BME280;12789;42.610;23.040;2022-07-29T12:44:13;93522.59;;;37.83;39.80
10480;BME280;12789;42.610;23.040;2022-07-29T12:46:41;93528.06;;;37.92;40.59
10480;BME280;12789;42.610;23.040;2022-07-29T12:49:08;93529.84;;;38.69;40.41
10480;BME280;12789;42.610;23.040;2022-07-29T12:51:36;93519.16;;;39.07;38.03
10480;BME280;12789;42.610;23.040;2022-07-29T12:54:10;93524.41;;;37.88;41.46
10480;BME280;12789;42.610;23.040;2022-07-29T12:56:47;93526.78;;;36.98;38.66
10480;BME280;12789;42.610;23.040;2022-07-29T12:59:24;93512.78;;;35.58;42.47
10480;BME280;12789;42.610;23.040;2022-07-29T13:01:52;93522.38;;;36.04;42.35
10480;BME280;12789;42.610;23.040;2022-07-29T13:04:37;93518.75;;;36.36;41.75
10480;BME280;12789;42.610;23.040;2022-07-29T13:07:10;93509.16;;;36.87;40.33
10480;BME280;12789;42.610;23.040;2022-07-29T13:09:41;93511.13;;;36.73;40.14
10480;BME280;12789;42.610;23.040;2022-07-29T13:12:12;93513.56;;;37.27;41.94
10480;BME280;12789;42.610;23.040;2022-07-29T13:14:41;93513.94;;;34.93;42.41
10480;BME280;12789;42.610;23.040;2022-07-29T13:17:18;93500.38;;;34.66;45.19
10480;BME280;12789;42.610;23.040;2022-07-29T13:19:50;93502.44;;;36.41;42.21
10480;BME280;12789;42.610;23.040;2022-07-29T13:22:36;93504.88;;;37.08;41.15
10480;BME280;12789;42.610;23.040;2022-07-29T13:33:01;93479.94;;;38.87;36.88
10480;BME280;12789;42.610;23.040;2022-07-29T13:43:46;93487.44;;;35.73;41.40
10480;BME280;12789;42.610;23.040;2022-07-29T13:46:14;93488.97;;;34.56;42.38
10480;BME280;12789;42.610;23.040;2022-07-29T13:48:43;93498.28;;;35.27;40.75
10480;BME280;12789;42.610;23.040;2022-07-29T13:51:43;93495.59;;;35.41;41.87
10480;BME280;12789;42.610;23.040;2022-07-29T13:54:14;93493.69;;;35.14;41.13
10480;BME280;12789;42.610;23.040;2022-07-29T13:57:31;93488.59;;;36.07;42.73
10480;BME280;12789;42.610;23.040;2022-07-29T14:00:12;93502.47;;;33.77;43.59
10480;BME280;12789;42.610;23.040;2022-07-29T14:02:40;93494.97;;;34.16;43.27
10480;BME280;12789;42.610;23.040;2022-07-29T14:05:18;93501.59;;;36.18;41.83